Airfield :
LOGIN :

Register | Disclaimer

   EN    FR    IT 

 










Legend :    VFR   Marginal VFR   IFR   Intensive IFR   Very Intensive IFR
Visi :
Ceiling :
>= 8 km
>= 3000ft
5 to 8 km
1000 to 3000 ft
1500m to 5 km
500 to 1000 ft
800 to 1500m
200 to 500 ft
< 800m
< 200 ft
Symbols :   Thunderstorms  Fog  Heavy snow  Heavy precipitations  Wind > 20 kt
SIGMETs :     Misc.  Thunderstorms  Icing  Turbulence  Mountain Waves  Volcanic Ashes






- Airport Elevation : 364 ft
- IATA code : FRA


EDDF - Frankfurt Int.

CURRENT METAR :
  • 071620Z 31009KT 290V350 CAVOK 12/M02 Q1018 NOSIG

EXPIRED METARs :
  • 071550Z 30010KT 210V020 9999 FEW048 12/M02 Q1018 NOSIG
  • 071520Z 32009KT 270V360 9999 SCT048 12/M00 Q1018 NOSIG
  • 071450Z 29014KT 260V320 9999 SCT048 10/M01 Q1018 NOSIG
  • 071420Z 31011G22KT 250V350 9999 SCT046 11/M00 Q1017 NOSIG
  • 071350Z 31013KT 280V340 9999 SCT040 11/M00 Q1017 NOSIG

TAF TAF EDDF
Valid from the 07 at 12:00 until the 08 at 18:00 UTC


071100Z 0712/0818 29012KT 9999 FEW040
PROB30
TEMPO 0712/0714 30015G25KT SHRA BKN040TCU
BECMG 0716/0718 29007KT
BECMG 0718/0720 VRB03KT
BECMG 0807/0810 19007KT



MET'MAP, your aeronautical weather chart ! - Copyright ORBIFLY December 2007 - Disclaimer

ORBIFLY MET'MAP TEAM :

Programming & Development : Alexandra Zaïnal
Concept & original design : Baudouin d'Aumeries
Assistance for programming : Marc-Olivier Méhu
Technical & hardware support : Manuel Goepfert

Contact : metmap@orbifly.com




SOURCES & CREDITS :

   NOAA